Google Maps JavaScript API Example
Pilot Flight Report # 92685 Submitted by : AST775 on 2019-02-11
Date: 2019-02-11Aircraft: Boeing 737 MAX7
Flight No.: Not AvailableDistance (Nm): 592.21
Departure: WBKK - Kota KinabaluDestination: RPLL - Ninoy Aquino International
 TimeFuelWeightSpeeds  
Out (Taxi)2236Z23119 lbs112219 lbs Flight RulesIFR
Off (Takeoff)2237Z 112109 lbs152 ktsFlight Level32000
On (Landing)0008Z 103986 lbs137 ktsVSTD-198 ft/min
In (Ramp)0008Z14886 lbs103985 lbs ZFW89100 lbs
Flight1.50  -  1:318119 lbs  Pax0
Block1.53  -  1:328233 lbs  Cargo0
Departure Weather102340Z 09325KT 44SM SKC -31/-43 A2998
Destination WeatherRPLL 100008Z 09108KT 57SM FEW023 27/21 A3009
Flight CommentsLeg 10 - WBKK - RPLL